Time;durP1;ratioP1;P1;durP2;ratioP2;P2;SDS_P1;SDS_P2;PMS_P1;PMS_P2;Temp;Humidity;BMP_temperature;BMP_pressure;BME280_temperature;BME280_humidity;BME280_pressure;Samples;Min_cycle;Max_cycle;Signal;HPM_P1;HPM_P2
2024/01/13 05:47:36;;;;;;;180.38;53.20;;;-4.70;99.90;;;;;;7570442;19;20347;-74
2024/01/13 05:50:09;;;;;;;183.07;49.85;;;-4.70;99.90;;;;;;7584293;19;20107;-72
2024/01/13 05:52:41;;;;;;;183.98;52.03;;;-4.70;99.90;;;;;;7586479;19;20045;-72
2024/01/13 05:55:14;;;;;;;176.15;51.47;;;-4.60;99.90;;;;;;7579558;19;20025;-74
2024/01/13 05:57:48;;;;;;;174.77;51.83;;;-4.50;99.90;;;;;;7572536;19;20101;-73
2024/01/13 06:00:20;;;;;;;152.70;48.83;;;-4.40;99.90;;;;;;7594235;19;20782;-74
2024/01/13 06:02:53;;;;;;;149.07;47.15;;;-4.30;99.90;;;;;;7578460;19;20077;-73
2024/01/13 06:05:26;;;;;;;146.00;44.88;;;-4.20;99.90;;;;;;7565725;19;20025;-72
2024/01/13 06:07:58;;;;;;;148.27;43.57;;;-4.20;99.90;;;;;;7591951;19;20019;-74
2024/01/13 06:10:31;;;;;;;122.33;42.70;;;-4.20;99.90;;;;;;7589340;19;20014;-74
2024/01/13 06:13:03;;;;;;;134.48;42.15;;;-4.20;99.90;;;;;;7596382;19;20018;-73
2024/01/13 06:15:35;;;;;;;140.07;45.50;;;-4.20;99.90;;;;;;7580605;19;20885;-73
2024/01/13 06:18:08;;;;;;;156.13;47.20;;;-4.10;99.90;;;;;;7583904;19;21539;-75
2024/01/13 06:20:40;;;;;;;130.25;44.53;;;-4.10;99.90;;;;;;7589725;19;20021;-76
2024/01/13 06:23:13;;;;;;;159.18;44.58;;;-4.00;99.90;;;;;;7569833;19;20059;-73
2024/01/13 06:25:45;;;;;;;133.85;41.05;;;-4.00;99.90;;;;;;7570024;19;20022;-73
2024/01/13 06:28:18;;;;;;;128.77;42.20;;;-4.00;99.90;;;;;;7575177;19;20022;-73
2024/01/13 06:30:50;;;;;;;129.93;41.60;;;-4.00;99.90;;;;;;7568308;19;20029;-74
2024/01/13 06:33:23;;;;;;;125.60;41.00;;;-4.00;99.90;;;;;;7578443;19;20018;-74
2024/01/13 06:35:57;;;;;;;117.63;38.08;;;-3.90;99.90;;;;;;7558275;19;20034;-72
2024/01/13 06:38:29;;;;;;;140.32;41.45;;;-3.90;99.90;;;;;;7574847;19;22484;-72
2024/01/13 06:41:02;;;;;;;131.07;38.60;;;-3.90;99.90;;;;;;7588900;19;20402;-74
2024/01/13 06:43:34;;;;;;;125.30;40.03;;;-3.90;99.90;;;;;;7586166;19;20863;-74
2024/01/13 06:46:07;;;;;;;130.52;42.05;;;-3.90;99.90;;;;;;7589099;19;20059;-73
2024/01/13 06:48:40;;;;;;;130.13;38.88;;;-3.90;99.90;;;;;;7590808;19;21294;-73
2024/01/13 06:51:14;;;;;;;129.38;40.50;;;-4.00;99.90;;;;;;7578182;19;20645;-75
2024/01/13 06:53:46;;;;;;;117.85;36.92;;;-4.10;99.90;;;;;;7569749;19;21125;-74
2024/01/13 06:56:19;;;;;;;113.93;37.80;;;-4.00;99.90;;;;;;7571373;19;20010;-73
2024/01/13 06:58:51;;;;;;;122.13;38.87;;;-3.90;99.90;;;;;;7536134;19;21003;-73
2024/01/13 07:01:24;;;;;;;111.55;37.17;;;-4.00;99.90;;;;;;7525853;19;21193;-74
2024/01/13 07:03:56;;;;;;;111.78;36.20;;;-3.90;99.90;;;;;;7554700;19;20017;-74
2024/01/13 07:06:29;;;;;;;114.85;38.00;;;-3.90;99.90;;;;;;7557588;19;20006;-73
2024/01/13 07:09:01;;;;;;;126.40;40.15;;;-4.00;99.90;;;;;;7555668;19;20648;-74
2024/01/13 07:11:33;;;;;;;105.53;34.63;;;-4.10;99.90;;;;;;7544344;19;20145;-72
2024/01/13 07:14:05;;;;;;;123.07;38.53;;;-4.00;99.90;;;;;;7559832;19;20029;-74
2024/01/13 07:16:38;;;;;;;99.88;33.90;;;-4.10;99.90;;;;;;7516213;19;20098;-73
2024/01/13 07:19:11;;;;;;;109.88;36.42;;;-4.10;99.90;;;;;;7558820;19;20503;-73
2024/01/13 07:21:45;;;;;;;110.30;36.22;;;-4.10;99.90;;;;;;7542568;19;20010;-74
2024/01/13 07:24:17;;;;;;;139.82;42.90;;;-4.20;99.90;;;;;;7530152;19;20026;-73
2024/01/13 07:26:50;;;;;;;111.18;38.72;;;-4.30;99.90;;;;;;7555405;19;20055;-71
2024/01/13 07:29:23;;;;;;;104.32;35.20;;;-4.30;99.90;;;;;;7555344;19;20409;-73
2024/01/13 07:31:56;;;;;;;101.35;33.35;;;-4.20;99.90;;;;;;7535691;19;21642;-73
2024/01/13 07:34:28;;;;;;;119.55;36.50;;;-4.20;99.90;;;;;;7553793;19;20098;-74
2024/01/13 07:37:01;;;;;;;111.10;29.17;;;-4.10;99.90;;;;;;7542030;19;20033;-73
2024/01/13 07:39:34;;;;;;;113.75;33.97;;;-4.10;99.90;;;;;;7530220;19;20283;-72
2024/01/13 07:42:07;;;;;;;;;;;-4.10;99.90;;;;;;7544236;19;20945;-72
2024/01/13 07:44:42;;;;;;;126.30;37.05;;;-4.10;99.90;;;;;;7526422;19;19943;-74
2024/01/13 07:47:15;;;;;;;115.93;34.90;;;-4.20;99.90;;;;;;7541558;19;20068;-72
2024/01/13 07:49:47;;;;;;;108.45;33.80;;;-4.30;99.90;;;;;;7539696;19;20504;-74
2024/01/13 07:52:20;;;;;;;110.40;32.83;;;-4.30;99.90;;;;;;7535594;19;20019;-72
2024/01/13 07:54:52;;;;;;;107.30;35.83;;;-4.20;99.90;;;;;;7534293;19;20029;-73
2024/01/13 07:57:27;;;;;;;112.00;33.15;;;-4.30;99.90;;;;;;7537757;19;20023;-75
2024/01/13 08:00:00;;;;;;;103.20;30.73;;;-4.20;99.90;;;;;;7526542;19;20014;-74
2024/01/13 08:02:43;;;;;;;105.40;33.92;;;-4.20;99.90;;;;;;7539517;19;20021;-74
2024/01/13 08:05:15;;;;;;;98.57;31.57;;;-4.20;99.90;;;;;;7516615;19;20019;-73
2024/01/13 08:07:48;;;;;;;106.90;32.60;;;-4.10;99.90;;;;;;7528427;19;20862;-75
2024/01/13 08:10:21;;;;;;;106.07;33.70;;;-4.10;99.90;;;;;;7536833;19;20033;-75
2024/01/13 08:12:53;;;;;;;117.20;35.17;;;-4.00;99.90;;;;;;7540695;19;20726;-73
2024/01/13 08:15:25;;;;;;;102.90;30.25;;;-4.00;99.90;;;;;;7549464;19;20015;-74
2024/01/13 08:17:58;;;;;;;104.87;33.53;;;-4.00;99.90;;;;;;7560131;19;21279;-74
2024/01/13 08:20:32;;;;;;;97.20;31.73;;;-4.00;99.90;;;;;;7538897;19;20090;-74
2024/01/13 08:23:05;;;;;;;104.15;32.40;;;-3.90;99.90;;;;;;7573275;19;20025;-74
2024/01/13 08:25:38;;;;;;;;;;;-3.80;99.90;;;;;;7567810;19;20019;-73
2024/01/13 08:28:11;;;;;;;103.43;31.30;;;-3.80;99.90;;;;;;7557324;19;20649;-74
2024/01/13 08:30:45;;;;;;;102.63;31.48;;;-3.80;99.90;;;;;;7541952;19;20038;-75
2024/01/13 08:33:18;;;;;;;89.10;28.55;;;-3.80;99.90;;;;;;7563355;19;20126;-73
2024/01/13 08:35:51;;;;;;;90.40;28.00;;;-3.70;99.90;;;;;;7557682;19;20391;-75
2024/01/13 08:38:23;;;;;;;86.75;26.20;;;-3.60;99.90;;;;;;7575277;19;20011;-75
2024/01/13 08:40:56;;;;;;;78.63;26.27;;;-3.60;99.90;;;;;;7573427;19;20022;-74
2024/01/13 08:43:28;;;;;;;78.15;27.75;;;-3.70;99.90;;;;;;7570222;19;20515;-74
2024/01/13 08:46:01;;;;;;;81.28;26.27;;;-3.70;99.90;;;;;;7575109;19;20018;-72
2024/01/13 08:48:35;;;;;;;94.03;29.30;;;-3.60;99.90;;;;;;7570801;19;20010;-75
2024/01/13 08:51:09;;;;;;;96.78;32.85;;;-3.60;99.90;;;;;;7572488;19;20018;-74
2024/01/13 08:53:49;;;;;;;94.95;33.63;;;-3.60;99.90;;;;;;7570769;19;20149;-74
2024/01/13 08:56:21;;;;;;;84.97;30.38;;;-3.70;99.90;;;;;;7566055;19;20585;-73
2024/01/13 08:58:54;;;;;;;88.80;30.75;;;-3.60;99.90;;;;;;7575468;19;20051;-74
2024/01/13 09:01:27;;;;;;;84.05;26.85;;;-3.50;99.90;;;;;;7570917;19;20097;-74
2024/01/13 09:04:09;;;;;;;80.45;28.73;;;-3.40;99.90;;;;;;7576856;19;20013;-72
2024/01/13 09:06:43;;;;;;;82.93;26.85;;;-3.30;99.90;;;;;;7580791;19;20091;-73
2024/01/13 09:09:16;;;;;;;80.23;26.70;;;-3.40;99.90;;;;;;7572262;19;20002;-74
2024/01/13 09:11:49;;;;;;;85.32;26.45;;;-3.30;99.90;;;;;;7559635;19;20947;-75
2024/01/13 09:14:21;;;;;;;91.70;29.43;;;-3.30;99.90;;;;;;7559811;19;20018;-74
2024/01/13 09:16:53;;;;;;;78.18;25.58;;;-3.20;99.90;;;;;;7559573;19;20033;-75
2024/01/13 09:19:26;;;;;;;77.72;24.40;;;-3.20;99.90;;;;;;7548849;19;20037;-75
2024/01/13 09:21:59;;;;;;;75.88;25.50;;;-3.20;99.90;;;;;;7561770;19;20026;-74
2024/01/13 09:24:31;;;;;;;80.30;26.47;;;-3.20;99.90;;;;;;7565032;19;20021;-73
2024/01/13 09:27:04;;;;;;;80.32;27.75;;;-3.00;99.90;;;;;;7556775;19;20017;-73
2024/01/13 09:29:37;;;;;;;83.35;27.25;;;-3.00;99.90;;;;;;7543000;19;20014;-73
2024/01/13 09:32:10;;;;;;;80.43;27.77;;;-3.00;99.90;;;;;;7567381;19;20018;-74
2024/01/13 09:34:42;;;;;;;70.18;23.02;;;-3.10;99.90;;;;;;7564770;19;20149;-73
2024/01/13 09:37:16;;;;;;;88.63;29.05;;;-3.20;99.90;;;;;;7562783;19;20050;-74
2024/01/13 09:39:49;;;;;;;83.78;27.27;;;-3.30;99.90;;;;;;7560719;19;20017;-75
2024/01/13 09:42:40;;;;;;;76.97;27.27;;;-3.20;99.90;;;;;;7559964;19;20026;-74
2024/01/13 09:45:14;;;;;;;78.78;27.55;;;-3.20;99.90;;;;;;7555082;19;20006;-74
2024/01/13 09:47:47;;;;;;;86.60;28.13;;;-3.30;99.90;;;;;;7560454;19;20025;-73
2024/01/13 09:50:21;;;;;;;73.78;24.52;;;-3.20;99.90;;;;;;7555653;19;20014;-74
2024/01/13 09:52:53;;;;;;;88.32;26.50;;;-3.10;99.90;;;;;;7552242;19;20702;-74
2024/01/13 09:55:29;;;;;;;79.25;26.55;;;-3.10;99.90;;;;;;7545357;19;20021;-73
2024/01/13 09:58:03;;;;;;;81.07;28.33;;;-3.10;99.90;;;;;;7555598;19;20937;-73
2024/01/13 10:00:36;;;;;;;79.20;27.35;;;-3.10;99.90;;;;;;7552682;19;20022;-76
2024/01/13 10:03:08;;;;;;;67.07;22.83;;;-3.10;99.90;;;;;;7563463;19;20706;-74
2024/01/13 10:05:41;;;;;;;74.40;26.70;;;-3.00;99.90;;;;;;7547196;19;20018;-75
2024/01/13 10:08:14;;;;;;;70.97;24.13;;;-3.10;99.90;;;;;;7566110;19;20295;-73
2024/01/13 10:10:46;;;;;;;67.00;24.45;;;-2.90;99.90;;;;;;7559973;19;20110;-74
2024/01/13 10:13:20;;;;;;;72.28;24.85;;;-2.90;99.90;;;;;;7558890;19;20021;-74
2024/01/13 10:15:54;;;;;;;66.78;24.10;;;-2.80;99.90;;;;;;7564626;19;20063;-75
2024/01/13 10:18:27;;;;;;;68.45;24.15;;;-3.90;99.90;;;;;;7561550;19;20506;-74
2024/01/13 10:21:03;;;;;;;70.07;24.83;;;-2.80;99.90;;;;;;7559286;19;20782;-73
2024/01/13 10:23:35;;;;;;;68.93;24.17;;;-2.70;99.90;;;;;;7554122;19;21259;-74
2024/01/13 10:26:10;;;;;;;62.33;23.88;;;-2.70;99.90;;;;;;7555933;19;20018;-73
2024/01/13 10:28:43;;;;;;;67.03;24.27;;;-2.70;99.90;;;;;;7549739;19;20315;-73
2024/01/13 10:31:16;;;;;;;61.83;22.05;;;-2.60;99.90;;;;;;7554433;19;20022;-74
2024/01/13 10:34:00;;;;;;;58.47;22.05;;;-2.60;99.90;;;;;;7567058;19;20025;-75
2024/01/13 10:36:33;;;;;;;57.03;22.67;;;-2.80;99.90;;;;;;7561962;19;20029;-73
2024/01/13 10:39:05;;;;;;;62.97;23.85;;;-2.80;99.90;;;;;;7565631;19;20389;-72
2024/01/13 10:41:42;;;;;;;66.00;23.97;;;-2.80;99.90;;;;;;7561123;19;20674;-73
2024/01/13 10:44:17;;;;;;;60.40;22.15;;;-2.60;99.90;;;;;;7565472;19;20022;-73
2024/01/13 10:46:52;;;;;;;61.00;22.42;;;-2.70;99.90;;;;;;7548555;19;20019;-76
2024/01/13 10:49:33;;;;;;;58.15;21.25;;;-2.60;99.90;;;;;;7556973;19;21094;-75
2024/01/13 10:52:06;;;;;;;56.92;20.98;;;-2.50;99.90;;;;;;7557633;19;20047;-75
2024/01/13 10:54:39;;;;;;;53.25;21.40;;;-2.50;99.90;;;;;;7549212;19;20847;-76
2024/01/13 10:57:14;;;;;;;59.65;22.23;;;-2.20;99.90;;;;;;7521878;19;20578;-76
2024/01/13 10:59:50;;;;;;;54.58;21.77;;;-2.20;99.90;;;;;;7562510;19;20470;-75
2024/01/13 11:02:22;;;;;;;57.80;23.20;;;-2.10;99.90;;;;;;7561735;19;20019;-75
2024/01/13 11:04:58;;;;;;;52.47;22.00;;;-1.90;99.90;;;;;;7563948;19;20778;-73
2024/01/13 11:07:31;;;;;;;58.38;24.02;;;-2.00;99.90;;;;;;7558799;19;21644;-73
2024/01/13 11:10:11;;;;;;;55.92;23.88;;;-1.90;99.90;;;;;;7571335;19;20051;-74
2024/01/13 15:37:23;;;;;;;56.13;23.10;;;-3.80;99.90;;;;;;6566880;19;9999898;-74
2024/01/13 15:39:56;;;;;;;60.42;22.90;;;-3.90;99.90;;;;;;7607232;19;20075;-74
2024/01/13 15:42:29;;;;;;;58.83;23.30;;;-3.90;99.90;;;;;;7573891;19;20010;-74
2024/01/13 15:45:02;;;;;;;66.22;25.00;;;-3.90;99.90;;;;;;7584731;19;21340;-75
2024/01/13 15:47:43;;;;;;;65.53;25.17;;;-4.00;99.90;;;;;;7574143;19;20531;-75
2024/01/13 15:50:16;;;;;;;72.90;27.17;;;-4.10;99.90;;;;;;7590624;19;20017;-73
2024/01/13 15:52:55;;;;;;;63.28;25.70;;;-4.10;99.90;;;;;;7586453;19;20014;-73
2024/01/13 15:55:27;;;;;;;60.67;25.00;;;-4.10;99.90;;;;;;7578005;19;20043;-74
2024/01/13 15:58:03;;;;;;;421.80;119.82;;;-4.10;99.90;;;;;;7592394;19;20029;-73
2024/01/13 16:00:36;;;;;;;1698.47;716.60;;;-4.10;99.90;;;;;;7600815;19;20054;-73
2024/01/13 16:03:08;;;;;;;882.95;396.02;;;-4.10;99.90;;;;;;7588763;19;20047;-73
2024/01/13 16:05:41;;;;;;;443.50;169.97;;;-4.00;99.90;;;;;;7569404;19;20021;-73
2024/01/13 16:08:14;;;;;;;148.82;56.40;;;-4.00;99.90;;;;;;7576851;19;20267;-74
2024/01/13 16:10:47;;;;;;;104.47;41.35;;;-4.00;99.90;;;;;;7588149;19;20018;-74
2024/01/13 16:13:19;;;;;;;64.40;24.07;;;-4.00;99.90;;;;;;7587703;19;20014;-73
2024/01/13 16:15:52;;;;;;;77.05;30.10;;;-4.00;99.90;;;;;;7579418;19;20018;-76
2024/01/13 16:18:25;;;;;;;74.47;28.60;;;-4.10;99.90;;;;;;7583297;19;20021;-74
2024/01/13 16:20:58;;;;;;;62.97;25.63;;;-4.10;99.90;;;;;;7581342;19;20020;-74
2024/01/13 16:23:33;;;;;;;249.25;93.20;;;-4.10;99.90;;;;;;7570787;19;20663;-74
2024/01/13 16:26:05;;;;;;;148.77;61.60;;;-4.00;99.90;;;;;;7567315;19;20018;-72
2024/01/13 16:28:37;;;;;;;82.32;29.42;;;-4.00;99.90;;;;;;7595439;19;20021;-73
2024/01/13 16:31:10;;;;;;;86.32;30.08;;;-4.00;99.90;;;;;;7579159;19;20292;-73
2024/01/13 16:33:43;;;;;;;87.90;32.45;;;-4.00;99.90;;;;;;7589737;19;20033;-73
2024/01/13 16:36:15;;;;;;;94.60;32.58;;;-4.00;99.90;;;;;;7587437;19;21319;-72
2024/01/13 16:38:48;;;;;;;84.22;31.67;;;-4.00;99.90;;;;;;7576969;19;20014;-73
2024/01/13 16:41:20;;;;;;;83.57;32.40;;;-3.90;99.90;;;;;;7563753;19;20011;-74
2024/01/13 16:43:53;;;;;;;88.22;29.05;;;-3.80;99.90;;;;;;7584137;19;20006;-73
2024/01/13 16:46:26;;;;;;;86.88;32.22;;;-3.70;99.90;;;;;;7570363;19;20037;-74
2024/01/13 16:48:58;;;;;;;99.65;30.58;;;-3.70;99.90;;;;;;7552555;19;21222;-73
2024/01/13 16:51:31;;;;;;;104.97;31.63;;;-3.70;99.90;;;;;;7560384;19;20015;-73
2024/01/13 16:54:04;;;;;;;113.05;36.72;;;-3.70;99.90;;;;;;7544825;19;20018;-76
2024/01/13 16:56:37;;;;;;;85.93;32.00;;;-3.70;99.90;;;;;;7547845;19;20025;-74
2024/01/13 16:59:09;;;;;;;104.68;34.38;;;-3.60;99.90;;;;;;7543129;19;20113;-73
2024/01/13 17:01:42;;;;;;;103.05;32.85;;;-3.60;99.90;;;;;;7567643;19;20015;-76
2024/01/13 17:04:16;;;;;;;103.85;33.70;;;-3.60;99.90;;;;;;7564529;19;20022;-73
2024/01/13 17:06:49;;;;;;;119.00;36.97;;;-3.60;99.90;;;;;;7564748;19;20010;-73
2024/01/13 17:09:23;;;;;;;110.55;33.25;;;-3.60;99.90;;;;;;7567140;19;20412;-74
2024/01/13 17:11:56;;;;;;;115.05;37.25;;;-3.50;99.90;;;;;;7573421;19;20018;-74
2024/01/13 17:14:32;;;;;;;109.97;34.17;;;-3.40;99.90;;;;;;7578066;19;20018;-74
2024/01/13 17:17:05;;;;;;;99.32;29.73;;;-3.40;99.90;;;;;;7575503;19;20026;-72
2024/01/13 17:19:37;;;;;;;109.32;33.55;;;-3.30;99.90;;;;;;7577517;19;20069;-73
2024/01/13 17:22:12;;;;;;;86.27;26.70;;;-3.30;99.90;;;;;;7569002;19;20016;-74
2024/01/13 17:24:49;;;;;;;81.93;26.42;;;-3.30;99.90;;;;;;7568483;19;21154;-72
2024/01/13 17:27:21;;;;;;;100.40;32.10;;;-3.10;99.90;;;;;;7551936;19;20098;-73
2024/01/13 17:29:54;;;;;;;108.70;33.72;;;-3.20;99.90;;;;;;7564021;19;20014;-74
2024/01/13 17:32:29;;;;;;;110.97;35.72;;;-3.20;99.90;;;;;;7565131;19;20014;-73
2024/01/13 17:35:21;;;;;;;106.47;34.85;;;-3.30;99.90;;;;;;7573010;19;20010;-74
2024/01/13 17:37:55;;;;;;;103.20;31.33;;;-3.30;99.90;;;;;;7560468;19;20026;-74
2024/01/13 17:40:29;;;;;;;103.82;33.28;;;-3.20;99.90;;;;;;7561430;19;21284;-75
2024/01/13 17:43:02;;;;;;;95.07;30.45;;;-3.10;99.90;;;;;;7554233;19;20022;-74
2024/01/13 17:45:35;;;;;;;104.82;32.25;;;-3.10;99.90;;;;;;7564081;19;20014;-73
2024/01/13 17:48:09;;;;;;;104.90;28.23;;;-3.10;99.90;;;;;;7574223;19;20011;-74
2024/01/13 17:50:42;;;;;;;115.18;31.92;;;-3.20;99.90;;;;;;7579061;19;20025;-74
2024/01/13 17:53:15;;;;;;;104.45;31.55;;;-3.20;99.90;;;;;;7557320;19;20018;-73
2024/01/13 17:55:50;;;;;;;128.77;37.78;;;-3.20;99.90;;;;;;7564181;19;20044;-74
2024/01/13 17:58:23;;;;;;;116.18;32.90;;;-3.30;99.90;;;;;;7551499;19;20018;-74
2024/01/13 18:00:55;;;;;;;118.13;33.93;;;-3.30;99.90;;;;;;7565382;19;20014;-74
2024/01/13 18:03:27;;;;;;;111.27;32.60;;;-3.20;99.90;;;;;;7565010;19;20029;-75
2024/01/13 18:06:00;;;;;;;100.95;31.58;;;-3.20;99.90;;;;;;7544664;19;20018;-74
2024/01/13 18:08:35;;;;;;;109.95;31.38;;;-3.20;99.90;;;;;;7559963;19;20069;-74
2024/01/13 18:11:08;;;;;;;108.78;32.22;;;-3.20;99.90;;;;;;7523369;19;20028;-73
2024/01/13 18:13:42;;;;;;;109.13;31.88;;;-3.10;99.90;;;;;;7539303;19;20022;-74
2024/01/13 18:16:14;;;;;;;105.07;32.47;;;-3.00;99.90;;;;;;7553030;19;20024;-73
2024/01/13 18:18:47;;;;;;;116.55;34.03;;;-3.00;99.90;;;;;;7573976;19;20048;-72
2024/01/13 18:21:20;;;;;;;121.35;35.17;;;-3.00;99.90;;;;;;7568727;19;20010;-75
2024/01/13 18:23:52;;;;;;;114.80;36.47;;;-3.00;99.90;;;;;;7557262;19;20633;-72
2024/01/13 18:26:25;;;;;;;102.22;32.95;;;-3.00;99.90;;;;;;7544270;19;20014;-73
2024/01/13 18:28:57;;;;;;;122.28;34.75;;;-2.90;99.90;;;;;;7545490;19;20022;-73
2024/01/13 18:31:29;;;;;;;110.18;33.20;;;-2.90;99.90;;;;;;7559614;19;20018;-72
2024/01/13 18:34:02;;;;;;;113.20;32.87;;;-2.90;99.90;;;;;;7556313;19;20022;-74
2024/01/13 18:36:38;;;;;;;112.43;33.67;;;-2.80;99.90;;;;;;7556763;19;20022;-75
2024/01/13 18:39:10;;;;;;;113.88;36.15;;;-2.80;99.90;;;;;;7560611;19;20022;-74
2024/01/13 18:41:44;;;;;;;117.57;34.20;;;-2.90;99.90;;;;;;7567449;19;20022;-74
2024/01/13 18:44:20;;;;;;;111.28;34.00;;;-2.90;99.90;;;;;;7539985;19;20022;-73
2024/01/13 18:46:53;;;;;;;118.43;36.67;;;-2.90;99.90;;;;;;7547764;19;20014;-72
2024/01/13 18:49:26;;;;;;;;;;;-3.00;99.90;;;;;;7565195;19;20014;-73
2024/01/13 18:51:59;;;;;;;123.53;37.60;;;-3.10;99.90;;;;;;7551453;19;19922;-73
2024/01/13 18:54:31;;;;;;;112.60;35.10;;;-3.00;99.90;;;;;;7534088;19;20086;-72
2024/01/13 18:57:05;;;;;;;120.50;36.17;;;-3.00;99.90;;;;;;7559253;19;20026;-72
2024/01/13 18:59:39;;;;;;;101.80;33.15;;;-3.00;99.90;;;;;;7564188;19;20118;-75
2024/01/13 19:02:11;;;;;;;;;;;-3.00;99.90;;;;;;7560960;19;20018;-72
2024/01/13 19:04:48;;;;;;;112.82;34.92;;;-2.80;99.90;;;;;;7558558;19;19941;-74
2024/01/13 19:07:24;;;;;;;123.50;38.30;;;-2.90;99.90;;;;;;7547046;19;20084;-74
2024/01/13 19:09:57;;;;;;;110.18;36.72;;;-2.80;99.90;;;;;;7544018;19;20011;-71
2024/01/13 19:12:31;;;;;;;113.13;35.97;;;-2.90;99.90;;;;;;7561527;19;20430;-74
2024/01/13 19:15:05;;;;;;;113.28;36.85;;;-2.80;99.90;;;;;;7032621;19;10000277;-74
2024/01/13 19:17:38;;;;;;;114.82;36.78;;;-3.00;99.90;;;;;;7550665;19;20656;-73
2024/01/13 19:20:11;;;;;;;106.07;34.45;;;-2.80;99.90;;;;;;7538304;19;20003;-74
2024/01/13 19:22:44;;;;;;;107.53;36.45;;;-2.80;99.90;;;;;;7557666;19;20007;-73
2024/01/13 19:25:16;;;;;;;109.60;36.20;;;-2.70;99.90;;;;;;7562964;19;20014;-73
2024/01/13 19:27:48;;;;;;;105.35;34.47;;;-2.70;99.90;;;;;;7560811;19;20060;-73
2024/01/13 19:30:22;;;;;;;110.93;33.15;;;-2.80;99.90;;;;;;7543043;19;21846;-72
2024/01/13 19:32:55;;;;;;;110.63;35.80;;;-2.70;99.90;;;;;;7557475;19;20401;-74
2024/01/13 19:35:27;;;;;;;115.22;35.50;;;-2.70;99.90;;;;;;7545995;19;20018;-74
2024/01/13 19:38:00;;;;;;;98.30;33.20;;;-2.80;99.90;;;;;;7543254;19;20105;-73
2024/01/13 19:40:36;;;;;;;114.22;36.72;;;-2.70;99.90;;;;;;7540666;19;20010;-74
2024/01/13 19:43:08;;;;;;;110.22;32.80;;;-2.70;99.90;;;;;;7542670;19;20090;-73
2024/01/13 19:45:42;;;;;;;98.20;33.67;;;-2.80;99.90;;;;;;7531050;19;20109;-73
2024/01/13 19:48:14;;;;;;;110.80;36.17;;;-2.70;99.90;;;;;;7542674;19;20003;-73
2024/01/13 19:50:48;;;;;;;107.07;33.97;;;-2.70;99.90;;;;;;7546712;19;20011;-72
2024/01/13 19:53:21;;;;;;;;;;;-2.70;99.90;;;;;;7542419;19;20014;-73
2024/01/13 19:55:55;;;;;;;98.75;29.92;;;-2.60;99.90;;;;;;7529788;19;19930;-72
2024/01/13 19:58:28;;;;;;;95.95;31.83;;;-2.70;99.90;;;;;;7534036;19;21133;-73
2024/01/13 20:01:01;;;;;;;109.03;34.25;;;-2.70;99.90;;;;;;7556295;19;20044;-74
2024/01/13 20:03:34;;;;;;;98.82;32.35;;;-2.70;99.90;;;;;;7544166;19;20024;-73
2024/01/13 20:06:08;;;;;;;106.75;47.38;;;-2.70;99.90;;;;;;7548546;19;20465;-74
2024/01/13 20:08:41;;;;;;;102.63;33.30;;;-2.70;99.90;;;;;;7552434;19;20914;-73
2024/01/13 20:11:14;;;;;;;93.27;37.13;;;-2.70;99.90;;;;;;7538931;19;20302;-74
2024/01/13 20:13:46;;;;;;;88.13;27.70;;;-2.80;99.90;;;;;;7560748;19;20025;-73
2024/01/13 20:16:19;;;;;;;90.43;30.53;;;-2.70;99.90;;;;;;7546001;19;20018;-73
2024/01/13 20:18:52;;;;;;;84.93;30.95;;;-2.80;99.90;;;;;;7539318;19;20011;-75
2024/01/13 20:21:25;;;;;;;96.25;33.00;;;-2.80;99.90;;;;;;7540293;19;20010;-74
2024/01/13 20:23:59;;;;;;;;;;;-2.80;99.90;;;;;;7550750;19;20022;-73
2024/01/13 20:26:32;;;;;;;88.43;28.67;;;-2.80;99.90;;;;;;7541011;19;20395;-73
2024/01/13 20:29:04;;;;;;;95.60;35.22;;;-2.80;99.90;;;;;;7551319;19;20025;-73
2024/01/13 20:31:39;;;;;;;93.78;27.40;;;-2.80;99.90;;;;;;7551958;19;20011;-72
2024/01/13 20:34:12;;;;;;;81.55;26.67;;;-2.80;99.90;;;;;;7550741;19;20011;-73
2024/01/13 20:36:45;;;;;;;73.60;25.90;;;-2.80;99.90;;;;;;7556103;19;20038;-74
2024/01/13 20:39:19;;;;;;;81.37;31.43;;;-2.90;99.90;;;;;;7540555;19;20017;-72
2024/01/13 20:41:52;;;;;;;92.85;29.17;;;-3.00;99.90;;;;;;7552187;19;20021;-74
2024/01/13 20:44:25;;;;;;;;;;;-3.00;99.90;;;;;;7563774;19;20018;-73
2024/01/13 20:46:57;;;;;;;90.82;31.95;;;-3.00;99.90;;;;;;7563594;19;19915;-75
2024/01/13 20:49:31;;;;;;;96.65;30.13;;;-2.90;99.90;;;;;;7558493;19;20017;-74
2024/01/13 20:52:06;;;;;;;91.10;29.77;;;-3.00;99.90;;;;;;7557172;19;20806;-74
2024/01/13 20:54:39;;;;;;;102.07;33.40;;;-3.00;99.90;;;;;;7537284;19;20501;-74
2024/01/13 20:57:11;;;;;;;85.68;31.42;;;-3.00;99.90;;;;;;7547518;19;20022;-74
2024/01/13 20:59:44;;;;;;;94.70;31.42;;;-3.00;99.90;;;;;;7559734;19;20072;-75
2024/01/13 21:02:17;;;;;;;81.93;29.77;;;-2.90;99.90;;;;;;7540929;19;20062;-74
2024/01/13 21:04:50;;;;;;;92.85;33.08;;;-2.90;99.90;;;;;;7547936;19;20697;-74
2024/01/13 21:07:24;;;;;;;98.67;34.90;;;-2.90;99.90;;;;;;7548430;19;20015;-73
2024/01/13 21:09:56;;;;;;;93.05;33.05;;;-2.80;99.90;;;;;;7565400;19;20283;-74
2024/01/13 21:12:29;;;;;;;92.27;31.57;;;-2.80;99.90;;;;;;7547218;19;20859;-73
2024/01/13 21:15:05;;;;;;;98.80;33.53;;;-2.90;99.90;;;;;;7552607;19;21177;-73
2024/01/13 21:17:41;;;;;;;84.78;29.67;;;-2.80;99.90;;;;;;7555228;19;20024;-73
2024/01/13 21:20:14;;;;;;;93.70;32.03;;;-2.80;99.90;;;;;;7551806;19;20022;-76
2024/01/13 21:22:46;;;;;;;95.22;32.85;;;-2.80;99.90;;;;;;7543063;19;20888;-73
2024/01/13 21:25:19;;;;;;;100.07;32.30;;;-2.80;99.90;;;;;;7554303;19;20026;-75
2024/01/13 21:27:52;;;;;;;86.30;30.52;;;-2.80;99.90;;;;;;7554508;19;20026;-76
2024/01/13 21:30:27;;;;;;;;;;;-2.70;99.90;;;;;;7547515;19;20022;-72
2024/01/13 21:33:06;;;;;;;105.28;31.55;;;-2.70;99.90;;;;;;7552172;19;19918;-74
2024/01/13 21:35:39;;;;;;;88.70;32.08;;;-2.70;99.90;;;;;;7552853;19;20017;-72
2024/01/13 21:38:11;;;;;;;;;;;-2.70;99.90;;;;;;7550757;19;20654;-74
2024/01/13 21:40:44;;;;;;;102.10;32.63;;;-2.70;99.90;;;;;;7556733;19;19938;-74
2024/01/13 21:43:17;;;;;;;92.00;31.92;;;-2.70;99.90;;;;;;7542085;19;20122;-73
2024/01/13 21:45:49;;;;;;;112.50;33.43;;;-2.70;99.90;;;;;;7051243;19;9999688;-74
2024/01/13 21:48:22;;;;;;;93.07;31.20;;;-2.70;99.90;;;;;;7558721;19;20030;-73
2024/01/13 21:50:55;;;;;;;104.60;33.30;;;-2.70;99.90;;;;;;7562500;19;20391;-73
2024/01/13 21:53:28;;;;;;;94.63;31.80;;;-2.70;99.90;;;;;;7543755;19;20022;-74
2024/01/13 21:56:01;;;;;;;99.70;31.70;;;-2.70;99.90;;;;;;7560026;19;20021;-73
2024/01/13 21:58:33;;;;;;;101.65;33.45;;;-2.70;99.90;;;;;;7565331;19;20017;-74
2024/01/13 22:01:10;;;;;;;87.55;29.65;;;-2.70;99.90;;;;;;7582952;19;21222;-73
2024/01/13 22:03:44;;;;;;;88.43;28.98;;;-2.70;99.90;;;;;;7544772;19;20017;-72
2024/01/13 22:06:17;;;;;;;81.93;28.65;;;-2.70;99.90;;;;;;7538551;19;20018;-73
2024/01/13 22:08:50;;;;;;;90.25;31.90;;;-2.60;99.90;;;;;;7550047;19;20040;-74
2024/01/13 22:11:22;;;;;;;94.55;33.10;;;-2.70;99.90;;;;;;7553192;19;20754;-74
2024/01/13 22:13:56;;;;;;;90.43;30.38;;;-2.70;99.90;;;;;;7559258;19;20006;-75
2024/01/13 22:16:30;;;;;;;94.85;32.25;;;-2.70;99.90;;;;;;7555485;19;20007;-74
2024/01/13 22:19:05;;;;;;;98.50;32.10;;;-2.70;99.90;;;;;;7561218;19;20018;-75
2024/01/13 22:21:38;;;;;;;95.63;31.23;;;-2.70;99.90;;;;;;7555234;19;20018;-74
2024/01/13 22:24:12;;;;;;;91.97;32.05;;;-2.60;99.90;;;;;;7531529;19;21126;-76
2024/01/13 22:26:45;;;;;;;97.45;31.73;;;-2.60;99.90;;;;;;7556342;19;20018;-73
2024/01/13 22:29:18;;;;;;;88.30;29.38;;;-2.50;99.90;;;;;;7552572;19;20692;-74
2024/01/13 22:31:50;;;;;;;75.93;27.58;;;-2.50;99.90;;;;;;7536807;19;20596;-71
2024/01/13 22:34:23;;;;;;;88.53;30.10;;;-2.60;99.90;;;;;;7557365;19;20053;-74
2024/01/13 22:36:56;;;;;;;96.47;32.08;;;-2.60;99.90;;;;;;7546026;19;20998;-73
2024/01/13 22:39:28;;;;;;;89.38;28.88;;;-2.60;99.90;;;;;;7553606;19;20043;-74
2024/01/13 22:42:01;;;;;;;86.88;27.48;;;-2.60;99.90;;;;;;7546324;19;20044;-73
2024/01/13 22:44:33;;;;;;;87.40;30.90;;;-2.70;99.90;;;;;;7538262;19;20018;-73
2024/01/13 22:47:06;;;;;;;66.87;21.90;;;-2.70;99.90;;;;;;7554097;19;20018;-72
2024/01/13 22:49:38;;;;;;;88.05;30.23;;;-2.60;99.90;;;;;;7544330;19;21133;-74
2024/01/13 22:52:10;;;;;;;85.57;30.48;;;-2.70;99.90;;;;;;7561195;19;20019;-73
2024/01/13 22:54:44;;;;;;;96.90;32.00;;;-2.80;99.90;;;;;;7544531;19;20025;-74
2024/01/13 22:57:16;;;;;;;93.03;29.88;;;-2.80;99.90;;;;;;7550432;19;20579;-73
2024/01/13 22:59:51;;;;;;;82.28;26.15;;;-2.90;99.90;;;;;;7532372;19;20381;-73
2024/01/13 23:02:23;;;;;;;92.90;29.63;;;-2.90;99.90;;;;;;7536523;19;20030;-73
2024/01/13 23:04:56;;;;;;;98.15;31.23;;;-2.90;99.90;;;;;;7548655;19;20048;-73
2024/01/13 23:07:28;;;;;;;86.72;28.48;;;-3.00;99.90;;;;;;7543159;19;20014;-73